Negotin, Serbia
Current Conditions -  °F | °C
As of 9:00 AM on Sunday 23 Nov 2014 (Local Time) from LRCV Reporting Station
Haze Haze  
Wind Chill: 36°   Ceiling: 2700
Heat Index: 39°   Visibility: 2.8mi
Dew Point: 37°   Wind: 5mph
Humidity: 93%   Direction: 100°E
Pressure: 30.39"   Gusts: NA
Location:  44.23°N, 22.53°E
Report Text: LRCV 230700Z 10004KT 4500 BR OVC027 04/03 Q1029
Loading
Personal Weather Stations






























Interactive Weather Map New forecast layout! Learn more

10-Day Weather Forecast

Advertisements
Track Severe Weather on mobile